sensor_id;sensor_type;location;lat;lon;timestamp;P1;durP1;ratioP1;P2;durP2;ratioP2
55310;SDS011;41173;52.634;-8.666;2024-03-17T00:01:36;0.20;;;0.10;;
55310;SDS011;41173;52.634;-8.666;2024-03-17T00:04:02;0.20;;;0.10;;
55310;SDS011;41173;52.634;-8.666;2024-03-17T00:06:28;0.03;;;0.03;;
55310;SDS011;41173;52.634;-8.666;2024-03-17T00:08:54;0.10;;;0.03;;
55310;SDS011;41173;52.634;-8.666;2024-03-17T00:11:20;0.10;;;0.00;;
55310;SDS011;41173;52.634;-8.666;2024-03-17T00:13:46;0.00;;;0.00;;
55310;SDS011;41173;52.634;-8.666;2024-03-17T00:16:12;0.00;;;0.00;;
55310;SDS011;41173;52.634;-8.666;2024-03-17T00:18:38;0.10;;;0.00;;
55310;SDS011;41173;52.634;-8.666;2024-03-17T00:21:04;0.30;;;0.10;;
55310;SDS011;41173;52.634;-8.666;2024-03-17T00:23:30;0.03;;;0.00;;
55310;SDS011;41173;52.634;-8.666;2024-03-17T00:25:55;0.13;;;0.00;;
55310;SDS011;41173;52.634;-8.666;2024-03-17T00:28:21;0.10;;;0.00;;
55310;SDS011;41173;52.634;-8.666;2024-03-17T00:30:46;0.00;;;0.00;;
55310;SDS011;41173;52.634;-8.666;2024-03-17T00:33:12;0.10;;;0.00;;
55310;SDS011;41173;52.634;-8.666;2024-03-17T00:35:37;0.10;;;0.00;;
55310;SDS011;41173;52.634;-8.666;2024-03-17T00:38:03;0.00;;;0.00;;
55310;SDS011;41173;52.634;-8.666;2024-03-17T00:40:36;0.10;;;0.03;;
55310;SDS011;41173;52.634;-8.666;2024-03-17T00:43:02;0.00;;;0.00;;
55310;SDS011;41173;52.634;-8.666;2024-03-17T00:45:28;0.10;;;0.00;;
55310;SDS011;41173;52.634;-8.666;2024-03-17T00:47:53;0.10;;;0.00;;
55310;SDS011;41173;52.634;-8.666;2024-03-17T00:50:19;0.10;;;0.00;;
55310;SDS011;41173;52.634;-8.666;2024-03-17T00:52:44;0.10;;;0.03;;
55310;SDS011;41173;52.634;-8.666;2024-03-17T00:55:09;0.00;;;0.00;;
55310;SDS011;41173;52.634;-8.666;2024-03-17T00:57:35;0.10;;;0.10;;
55310;SDS011;41173;52.634;-8.666;2024-03-17T16:44:57;1.25;;;0.25;;
55310;SDS011;41173;52.634;-8.666;2024-03-17T16:47:28;0.73;;;0.20;;
55310;SDS011;41173;52.634;-8.666;2024-03-17T16:49:55;1.17;;;0.22;;
55310;SDS011;41173;52.634;-8.666;2024-03-17T16:52:23;0.93;;;0.30;;
55310;SDS011;41173;52.634;-8.666;2024-03-17T16:54:49;1.65;;;0.40;;
55310;SDS011;41173;52.634;-8.666;2024-03-17T16:57:14;0.80;;;0.20;;
55310;SDS011;41173;52.634;-8.666;2024-03-17T16:59:40;1.65;;;0.28;;
55310;SDS011;41173;52.634;-8.666;2024-03-17T17:02:09;1.15;;;0.25;;
55310;SDS011;41173;52.634;-8.666;2024-03-17T17:04:40;0.70;;;0.30;;
55310;SDS011;41173;52.634;-8.666;2024-03-17T17:07:06;0.95;;;0.35;;
55310;SDS011;41173;52.634;-8.666;2024-03-17T17:09:31;1.87;;;0.40;;
55310;SDS011;41173;52.634;-8.666;2024-03-17T17:11:57;2.97;;;0.60;;
55310;SDS011;41173;52.634;-8.666;2024-03-17T17:14:22;2.03;;;0.30;;
55310;SDS011;41173;52.634;-8.666;2024-03-17T17:16:49;2.65;;;0.47;;
55310;SDS011;41173;52.634;-8.666;2024-03-17T17:19:15;2.23;;;0.50;;
55310;SDS011;41173;52.634;-8.666;2024-03-17T17:21:40;2.43;;;0.50;;
55310;SDS011;41173;52.634;-8.666;2024-03-17T17:24:12;3.90;;;0.90;;
55310;SDS011;41173;52.634;-8.666;2024-03-17T17:26:43;3.55;;;0.30;;
55310;SDS011;41173;52.634;-8.666;2024-03-17T17:29:08;2.90;;;0.50;;
55310;SDS011;41173;52.634;-8.666;2024-03-17T17:31:35;1.70;;;0.50;;
55310;SDS011;41173;52.634;-8.666;2024-03-17T17:34:01;2.45;;;0.30;;
55310;SDS011;41173;52.634;-8.666;2024-03-17T17:36:27;2.72;;;0.47;;
55310;SDS011;41173;52.634;-8.666;2024-03-17T17:38:53;1.65;;;0.52;;
55310;SDS011;41173;52.634;-8.666;2024-03-17T17:41:19;3.08;;;0.70;;
55310;SDS011;41173;52.634;-8.666;2024-03-17T17:46:13;4.22;;;0.95;;
55310;SDS011;41173;52.634;-8.666;2024-03-17T17:48:40;1.90;;;0.50;;
55310;SDS011;41173;52.634;-8.666;2024-03-17T17:51:10;2.15;;;0.50;;
55310;SDS011;41173;52.634;-8.666;2024-03-17T17:53:38;1.50;;;0.68;;
55310;SDS011;41173;52.634;-8.666;2024-03-17T17:56:04;2.47;;;1.00;;
55310;SDS011;41173;52.634;-8.666;2024-03-17T17:58:31;1.92;;;0.88;;
55310;SDS011;41173;52.634;-8.666;2024-03-17T18:01:01;1.52;;;0.70;;
55310;SDS011;41173;52.634;-8.666;2024-03-17T18:03:27;2.20;;;0.45;;
55310;SDS011;41173;52.634;-8.666;2024-03-17T18:05:54;1.98;;;0.50;;
55310;SDS011;41173;52.634;-8.666;2024-03-17T18:08:23;2.17;;;0.52;;
55310;SDS011;41173;52.634;-8.666;2024-03-17T18:10:49;2.88;;;0.60;;
55310;SDS011;41173;52.634;-8.666;2024-03-17T18:13:15;4.22;;;0.57;;
55310;SDS011;41173;52.634;-8.666;2024-03-17T18:15:41;2.03;;;0.60;;
55310;SDS011;41173;52.634;-8.666;2024-03-17T18:18:07;2.47;;;0.90;;
55310;SDS011;41173;52.634;-8.666;2024-03-17T18:20:33;2.92;;;0.50;;
55310;SDS011;41173;52.634;-8.666;2024-03-17T18:22:59;2.20;;;0.40;;
55310;SDS011;41173;52.634;-8.666;2024-03-17T18:25:29;1.02;;;0.43;;
55310;SDS011;41173;52.634;-8.666;2024-03-17T18:27:57;3.70;;;0.38;;
55310;SDS011;41173;52.634;-8.666;2024-03-17T18:30:26;2.40;;;0.60;;
55310;SDS011;41173;52.634;-8.666;2024-03-17T18:32:54;2.67;;;0.50;;
55310;SDS011;41173;52.634;-8.666;2024-03-17T18:35:22;1.60;;;0.50;;
55310;SDS011;41173;52.634;-8.666;2024-03-17T18:37:49;3.40;;;0.70;;
55310;SDS011;41173;52.634;-8.666;2024-03-17T18:40:15;1.42;;;0.70;;
55310;SDS011;41173;52.634;-8.666;2024-03-17T18:42:43;2.75;;;0.60;;
55310;SDS011;41173;52.634;-8.666;2024-03-17T18:45:16;2.22;;;0.70;;
55310;SDS011;41173;52.634;-8.666;2024-03-17T18:47:43;1.25;;;0.40;;
55310;SDS011;41173;52.634;-8.666;2024-03-17T18:50:15;1.20;;;0.47;;
55310;SDS011;41173;52.634;-8.666;2024-03-17T18:52:45;1.92;;;0.50;;
55310;SDS011;41173;52.634;-8.666;2024-03-17T18:55:14;1.30;;;0.47;;
55310;SDS011;41173;52.634;-8.666;2024-03-17T18:57:43;4.10;;;0.70;;
55310;SDS011;41173;52.634;-8.666;2024-03-17T19:00:18;2.10;;;0.38;;
55310;SDS011;41173;52.634;-8.666;2024-03-17T19:02:50;2.65;;;0.50;;
55310;SDS011;41173;52.634;-8.666;2024-03-17T19:05:15;3.00;;;0.73;;
55310;SDS011;41173;52.634;-8.666;2024-03-17T19:07:44;3.45;;;0.50;;
55310;SDS011;41173;52.634;-8.666;2024-03-17T19:10:13;1.20;;;0.50;;
55310;SDS011;41173;52.634;-8.666;2024-03-17T19:12:48;2.38;;;0.73;;
55310;SDS011;41173;52.634;-8.666;2024-03-17T19:15:17;3.78;;;0.60;;
55310;SDS011;41173;52.634;-8.666;2024-03-17T19:17:42;2.80;;;0.60;;
55310;SDS011;41173;52.634;-8.666;2024-03-17T19:20:08;0.57;;;0.40;;
55310;SDS011;41173;52.634;-8.666;2024-03-17T19:22:41;1.88;;;0.45;;
55310;SDS011;41173;52.634;-8.666;2024-03-17T19:25:10;3.08;;;0.75;;
55310;SDS011;41173;52.634;-8.666;2024-03-17T19:27:37;2.08;;;0.40;;
55310;SDS011;41173;52.634;-8.666;2024-03-17T19:30:03;3.17;;;0.38;;
55310;SDS011;41173;52.634;-8.666;2024-03-17T19:32:30;2.88;;;0.55;;
55310;SDS011;41173;52.634;-8.666;2024-03-17T19:37:22;3.40;;;2.08;;
55310;SDS011;41173;52.634;-8.666;2024-03-17T19:39:47;2.20;;;0.80;;
55310;SDS011;41173;52.634;-8.666;2024-03-17T19:42:13;2.17;;;1.10;;
55310;SDS011;41173;52.634;-8.666;2024-03-17T19:44:38;1.87;;;0.70;;
55310;SDS011;41173;52.634;-8.666;2024-03-17T19:47:07;2.60;;;1.00;;
55310;SDS011;41173;52.634;-8.666;2024-03-17T19:49:32;3.27;;;1.70;;
55310;SDS011;41173;52.634;-8.666;2024-03-17T19:51:59;2.60;;;0.80;;
55310;SDS011;41173;52.634;-8.666;2024-03-17T19:54:24;1.67;;;0.80;;
55310;SDS011;41173;52.634;-8.666;2024-03-17T19:56:50;1.47;;;0.47;;
55310;SDS011;41173;52.634;-8.666;2024-03-17T19:59:15;1.13;;;0.27;;
55310;SDS011;41173;52.634;-8.666;2024-03-17T20:01:41;2.23;;;0.70;;
55310;SDS011;41173;52.634;-8.666;2024-03-17T20:04:06;1.13;;;0.33;;
55310;SDS011;41173;52.634;-8.666;2024-03-17T20:06:32;1.13;;;0.30;;
55310;SDS011;41173;52.634;-8.666;2024-03-17T20:08:57;1.02;;;0.47;;
55310;SDS011;41173;52.634;-8.666;2024-03-17T20:11:23;1.33;;;0.40;;
55310;SDS011;41173;52.634;-8.666;2024-03-17T20:13:49;1.90;;;0.52;;
55310;SDS011;41173;52.634;-8.666;2024-03-17T20:16:16;1.55;;;0.47;;
55310;SDS011;41173;52.634;-8.666;2024-03-17T20:18:48;0.95;;;0.30;;
55310;SDS011;41173;52.634;-8.666;2024-03-17T20:21:13;1.27;;;0.40;;
55310;SDS011;41173;52.634;-8.666;2024-03-17T20:23:39;1.10;;;0.30;;
55310;SDS011;41173;52.634;-8.666;2024-03-17T20:26:04;2.20;;;0.60;;
55310;SDS011;41173;52.634;-8.666;2024-03-17T20:28:30;1.03;;;0.40;;
55310;SDS011;41173;52.634;-8.666;2024-03-17T20:30:56;1.10;;;0.20;;
55310;SDS011;41173;52.634;-8.666;2024-03-17T20:33:22;1.33;;;0.30;;
55310;SDS011;41173;52.634;-8.666;2024-03-17T20:35:47;1.40;;;0.30;;
55310;SDS011;41173;52.634;-8.666;2024-03-17T20:38:13;1.48;;;0.50;;
55310;SDS011;41173;52.634;-8.666;2024-03-17T20:40:39;1.23;;;0.40;;
55310;SDS011;41173;52.634;-8.666;2024-03-17T20:43:06;0.93;;;0.20;;
55310;SDS011;41173;52.634;-8.666;2024-03-17T20:45:31;0.70;;;0.30;;
55310;SDS011;41173;52.634;-8.666;2024-03-17T20:47:57;1.03;;;0.30;;
55310;SDS011;41173;52.634;-8.666;2024-03-17T20:50:26;1.02;;;0.28;;
55310;SDS011;41173;52.634;-8.666;2024-03-17T20:52:52;0.40;;;0.25;;
55310;SDS011;41173;52.634;-8.666;2024-03-17T20:55:18;0.50;;;0.20;;
55310;SDS011;41173;52.634;-8.666;2024-03-17T20:57:45;0.52;;;0.17;;
55310;SDS011;41173;52.634;-8.666;2024-03-17T21:00:19;0.50;;;0.20;;
55310;SDS011;41173;52.634;-8.666;2024-03-17T21:02:48;1.75;;;0.30;;
55310;SDS011;41173;52.634;-8.666;2024-03-17T21:05:19;0.55;;;0.20;;
55310;SDS011;41173;52.634;-8.666;2024-03-17T21:07:46;0.30;;;0.20;;
55310;SDS011;41173;52.634;-8.666;2024-03-17T21:10:12;0.80;;;0.20;;
55310;SDS011;41173;52.634;-8.666;2024-03-17T21:12:41;0.53;;;0.20;;
55310;SDS011;41173;52.634;-8.666;2024-03-17T21:15:07;0.55;;;0.20;;
55310;SDS011;41173;52.634;-8.666;2024-03-17T21:17:35;0.47;;;0.20;;
55310;SDS011;41173;52.634;-8.666;2024-03-17T21:20:04;0.20;;;0.13;;
55310;SDS011;41173;52.634;-8.666;2024-03-17T21:22:32;1.10;;;0.30;;
55310;SDS011;41173;52.634;-8.666;2024-03-17T21:24:59;0.40;;;0.20;;
55310;SDS011;41173;52.634;-8.666;2024-03-17T21:27:25;0.43;;;0.10;;
55310;SDS011;41173;52.634;-8.666;2024-03-17T21:29:53;0.43;;;0.20;;
55310;SDS011;41173;52.634;-8.666;2024-03-17T21:32:18;0.17;;;0.10;;
55310;SDS011;41173;52.634;-8.666;2024-03-17T21:34:44;0.77;;;0.20;;
55310;SDS011;41173;52.634;-8.666;2024-03-17T21:37:09;0.37;;;0.13;;
55310;SDS011;41173;52.634;-8.666;2024-03-17T21:39:35;0.43;;;0.10;;
55310;SDS011;41173;52.634;-8.666;2024-03-17T21:42:00;0.47;;;0.20;;
55310;SDS011;41173;52.634;-8.666;2024-03-17T21:44:26;0.20;;;0.10;;
55310;SDS011;41173;52.634;-8.666;2024-03-17T21:46:53;0.20;;;0.10;;
55310;SDS011;41173;52.634;-8.666;2024-03-17T21:49:21;0.20;;;0.03;;
55310;SDS011;41173;52.634;-8.666;2024-03-17T21:51:46;0.30;;;0.10;;
55310;SDS011;41173;52.634;-8.666;2024-03-17T21:54:11;0.20;;;0.10;;
55310;SDS011;41173;52.634;-8.666;2024-03-17T21:56:37;0.40;;;0.10;;
55310;SDS011;41173;52.634;-8.666;2024-03-17T21:59:02;0.23;;;0.10;;
55310;SDS011;41173;52.634;-8.666;2024-03-17T22:01:30;0.70;;;0.10;;
55310;SDS011;41173;52.634;-8.666;2024-03-17T22:03:55;0.20;;;0.10;;
55310;SDS011;41173;52.634;-8.666;2024-03-17T22:06:23;0.03;;;0.00;;
55310;SDS011;41173;52.634;-8.666;2024-03-17T22:08:49;0.10;;;0.00;;
55310;SDS011;41173;52.634;-8.666;2024-03-17T22:11:14;0.30;;;0.00;;
55310;SDS011;41173;52.634;-8.666;2024-03-17T22:13:40;0.70;;;0.10;;
55310;SDS011;41173;52.634;-8.666;2024-03-17T22:16:05;0.43;;;0.10;;
55310;SDS011;41173;52.634;-8.666;2024-03-17T22:18:31;0.17;;;0.00;;
55310;SDS011;41173;52.634;-8.666;2024-03-17T22:23:24;0.13;;;0.05;;
55310;SDS011;41173;52.634;-8.666;2024-03-17T22:25:54;0.10;;;0.00;;
55310;SDS011;41173;52.634;-8.666;2024-03-17T22:28:21;0.00;;;0.00;;
55310;SDS011;41173;52.634;-8.666;2024-03-17T22:33:16;0.25;;;0.00;;
55310;SDS011;41173;52.634;-8.666;2024-03-17T22:35:42;0.10;;;0.00;;
55310;SDS011;41173;52.634;-8.666;2024-03-17T22:38:07;0.10;;;0.00;;
55310;SDS011;41173;52.634;-8.666;2024-03-17T22:40:33;0.35;;;0.00;;
55310;SDS011;41173;52.634;-8.666;2024-03-17T22:42:59;0.00;;;0.00;;
55310;SDS011;41173;52.634;-8.666;2024-03-17T22:45:25;0.00;;;0.00;;
55310;SDS011;41173;52.634;-8.666;2024-03-17T22:47:50;0.00;;;0.00;;
55310;SDS011;41173;52.634;-8.666;2024-03-17T22:50:15;0.10;;;0.10;;
55310;SDS011;41173;52.634;-8.666;2024-03-17T22:52:41;0.05;;;0.00;;
55310;SDS011;41173;52.634;-8.666;2024-03-17T22:55:07;0.10;;;0.10;;
55310;SDS011;41173;52.634;-8.666;2024-03-17T22:57:32;0.20;;;0.00;;
55310;SDS011;41173;52.634;-8.666;2024-03-17T22:59:58;0.10;;;0.03;;
55310;SDS011;41173;52.634;-8.666;2024-03-17T23:02:23;0.00;;;0.00;;
55310;SDS011;41173;52.634;-8.666;2024-03-17T23:04:49;0.53;;;0.10;;
55310;SDS011;41173;52.634;-8.666;2024-03-17T23:07:14;0.30;;;0.10;;
55310;SDS011;41173;52.634;-8.666;2024-03-17T23:09:40;0.00;;;0.00;;
55310;SDS011;41173;52.634;-8.666;2024-03-17T23:12:05;0.10;;;0.00;;
55310;SDS011;41173;52.634;-8.666;2024-03-17T23:14:35;0.10;;;0.10;;
55310;SDS011;41173;52.634;-8.666;2024-03-17T23:17:01;0.00;;;0.00;;
55310;SDS011;41173;52.634;-8.666;2024-03-17T23:19:26;0.30;;;0.10;;
55310;SDS011;41173;52.634;-8.666;2024-03-17T23:21:52;0.10;;;0.10;;
55310;SDS011;41173;52.634;-8.666;2024-03-17T23:24:18;0.17;;;0.00;;
55310;SDS011;41173;52.634;-8.666;2024-03-17T23:26:43;0.20;;;0.10;;
55310;SDS011;41173;52.634;-8.666;2024-03-17T23:29:09;0.00;;;0.00;;
55310;SDS011;41173;52.634;-8.666;2024-03-17T23:31:34;0.23;;;0.00;;
55310;SDS011;41173;52.634;-8.666;2024-03-17T23:34:00;0.10;;;0.00;;
55310;SDS011;41173;52.634;-8.666;2024-03-17T23:38:52;0.00;;;0.00;;
55310;SDS011;41173;52.634;-8.666;2024-03-17T23:41:20;0.10;;;0.00;;
55310;SDS011;41173;52.634;-8.666;2024-03-17T23:43:45;0.10;;;0.00;;
55310;SDS011;41173;52.634;-8.666;2024-03-17T23:46:12;0.08;;;0.00;;
55310;SDS011;41173;52.634;-8.666;2024-03-17T23:51:04;0.10;;;0.00;;
55310;SDS011;41173;52.634;-8.666;2024-03-17T23:53:29;0.43;;;0.00;;
55310;SDS011;41173;52.634;-8.666;2024-03-17T23:58:21;0.10;;;0.00;;
